sensor_id;sensor_type;location;lat;lon;timestamp;temperature;humidity
31819;DHT22;18384;48.860;9.188;2022-07-23T00:00:32;25.20;78.70
31819;DHT22;18384;48.860;9.188;2022-07-23T00:02:58;25.20;77.60
31819;DHT22;18384;48.860;9.188;2022-07-23T00:05:24;25.10;76.90
31819;DHT22;18384;48.860;9.188;2022-07-23T00:07:50;25.10;76.30
31819;DHT22;18384;48.860;9.188;2022-07-23T00:10:16;25.10;77.00
31819;DHT22;18384;48.860;9.188;2022-07-23T00:12:42;25.10;76.10
31819;DHT22;18384;48.860;9.188;2022-07-23T00:15:08;25.10;76.60
31819;DHT22;18384;48.860;9.188;2022-07-23T00:17:35;25.10;76.70
31819;DHT22;18384;48.860;9.188;2022-07-23T00:20:01;25.10;76.40
31819;DHT22;18384;48.860;9.188;2022-07-23T00:22:28;25.00;76.50
31819;DHT22;18384;48.860;9.188;2022-07-23T00:24:55;25.00;76.50
31819;DHT22;18384;48.860;9.188;2022-07-23T00:27:22;25.00;75.50
31819;DHT22;18384;48.860;9.188;2022-07-23T00:29:48;25.00;76.20
31819;DHT22;18384;48.860;9.188;2022-07-23T00:32:14;25.00;76.10
31819;DHT22;18384;48.860;9.188;2022-07-23T00:34:40;25.00;76.10
31819;DHT22;18384;48.860;9.188;2022-07-23T00:37:06;24.90;76.10
31819;DHT22;18384;48.860;9.188;2022-07-23T00:39:32;25.00;76.20
31819;DHT22;18384;48.860;9.188;2022-07-23T00:41:59;25.00;76.20
31819;DHT22;18384;48.860;9.188;2022-07-23T00:44:27;24.90;76.50
31819;DHT22;18384;48.860;9.188;2022-07-23T00:46:56;25.00;76.50
31819;DHT22;18384;48.860;9.188;2022-07-23T00:49:28;24.90;76.40
31819;DHT22;18384;48.860;9.188;2022-07-23T00:51:55;24.90;76.60
31819;DHT22;18384;48.860;9.188;2022-07-23T00:54:25;24.90;77.10
31819;DHT22;18384;48.860;9.188;2022-07-23T00:56:52;24.90;76.90
31819;DHT22;18384;48.860;9.188;2022-07-23T00:59:18;24.80;76.80
31819;DHT22;18384;48.860;9.188;2022-07-23T01:01:44;24.80;77.10
31819;DHT22;18384;48.860;9.188;2022-07-23T01:04:13;24.70;76.70
31819;DHT22;18384;48.860;9.188;2022-07-23T01:06:41;24.60;77.60
31819;DHT22;18384;48.860;9.188;2022-07-23T01:09:08;24.60;77.30
31819;DHT22;18384;48.860;9.188;2022-07-23T01:11:36;24.70;77.40
31819;DHT22;18384;48.860;9.188;2022-07-23T01:14:13;24.70;77.10
31819;DHT22;18384;48.860;9.188;2022-07-23T01:16:42;24.80;77.40
31819;DHT22;18384;48.860;9.188;2022-07-23T01:19:09;24.60;77.10
31819;DHT22;18384;48.860;9.188;2022-07-23T01:21:41;24.70;77.70
31819;DHT22;18384;48.860;9.188;2022-07-23T01:24:10;24.60;77.90
31819;DHT22;18384;48.860;9.188;2022-07-23T01:26:37;24.70;77.70
31819;DHT22;18384;48.860;9.188;2022-07-23T01:29:04;24.70;77.70
31819;DHT22;18384;48.860;9.188;2022-07-23T01:31:31;24.70;78.20
31819;DHT22;18384;48.860;9.188;2022-07-23T01:33:57;24.70;77.90
31819;DHT22;18384;48.860;9.188;2022-07-23T01:36:23;24.70;77.80
31819;DHT22;18384;48.860;9.188;2022-07-23T01:38:50;24.80;77.50
31819;DHT22;18384;48.860;9.188;2022-07-23T01:41:17;24.80;78.00
31819;DHT22;18384;48.860;9.188;2022-07-23T01:43:43;24.70;78.20
31819;DHT22;18384;48.860;9.188;2022-07-23T01:46:09;24.70;78.90
31819;DHT22;18384;48.860;9.188;2022-07-23T01:48:36;24.70;78.40
31819;DHT22;18384;48.860;9.188;2022-07-23T01:51:02;24.80;78.10
31819;DHT22;18384;48.860;9.188;2022-07-23T01:53:28;24.80;78.10
31819;DHT22;18384;48.860;9.188;2022-07-23T01:55:57;24.80;78.90
31819;DHT22;18384;48.860;9.188;2022-07-23T01:58:25;24.80;78.60
31819;DHT22;18384;48.860;9.188;2022-07-23T02:00:51;24.70;80.00
31819;DHT22;18384;48.860;9.188;2022-07-23T02:03:18;24.70;79.90
31819;DHT22;18384;48.860;9.188;2022-07-23T02:05:44;24.70;80.10
31819;DHT22;18384;48.860;9.188;2022-07-23T02:08:11;24.70;79.20
31819;DHT22;18384;48.860;9.188;2022-07-23T02:10:37;24.60;78.80
31819;DHT22;18384;48.860;9.188;2022-07-23T02:13:03;24.60;78.30
31819;DHT22;18384;48.860;9.188;2022-07-23T02:15:29;24.60;78.30
31819;DHT22;18384;48.860;9.188;2022-07-23T02:17:55;24.60;79.60
31819;DHT22;18384;48.860;9.188;2022-07-23T02:20:22;24.50;79.70
31819;DHT22;18384;48.860;9.188;2022-07-23T02:22:48;24.40;80.40
31819;DHT22;18384;48.860;9.188;2022-07-23T02:25:15;24.40;80.40
31819;DHT22;18384;48.860;9.188;2022-07-23T02:27:41;24.40;80.50
31819;DHT22;18384;48.860;9.188;2022-07-23T02:30:07;24.40;80.50
31819;DHT22;18384;48.860;9.188;2022-07-23T02:32:34;24.30;81.80
31819;DHT22;18384;48.860;9.188;2022-07-23T02:35:01;24.30;82.60
31819;DHT22;18384;48.860;9.188;2022-07-23T02:37:27;24.30;81.40
31819;DHT22;18384;48.860;9.188;2022-07-23T02:39:53;24.30;82.10
31819;DHT22;18384;48.860;9.188;2022-07-23T02:42:20;24.30;82.30
31819;DHT22;18384;48.860;9.188;2022-07-23T02:44:46;24.30;83.70
31819;DHT22;18384;48.860;9.188;2022-07-23T02:47:12;24.20;83.50
31819;DHT22;18384;48.860;9.188;2022-07-23T02:49:38;24.20;83.50
31819;DHT22;18384;48.860;9.188;2022-07-23T02:52:04;24.20;83.60
31819;DHT22;18384;48.860;9.188;2022-07-23T02:54:30;24.10;84.30
31819;DHT22;18384;48.860;9.188;2022-07-23T02:56:56;24.10;84.20
31819;DHT22;18384;48.860;9.188;2022-07-23T02:59:22;24.10;84.40
31819;DHT22;18384;48.860;9.188;2022-07-23T03:01:48;24.10;83.80
31819;DHT22;18384;48.860;9.188;2022-07-23T03:04:15;24.00;84.00
31819;DHT22;18384;48.860;9.188;2022-07-23T03:06:40;24.00;84.00
31819;DHT22;18384;48.860;9.188;2022-07-23T03:09:07;24.00;84.60
31819;DHT22;18384;48.860;9.188;2022-07-23T03:11:33;24.00;83.40
31819;DHT22;18384;48.860;9.188;2022-07-23T03:13:59;23.90;84.40
31819;DHT22;18384;48.860;9.188;2022-07-23T03:16:25;24.00;84.50
31819;DHT22;18384;48.860;9.188;2022-07-23T03:18:51;23.90;84.50
31819;DHT22;18384;48.860;9.188;2022-07-23T03:21:17;23.90;83.60
31819;DHT22;18384;48.860;9.188;2022-07-23T03:23:43;23.90;83.70
31819;DHT22;18384;48.860;9.188;2022-07-23T03:26:09;23.90;83.40
31819;DHT22;18384;48.860;9.188;2022-07-23T03:28:35;23.90;83.60
31819;DHT22;18384;48.860;9.188;2022-07-23T03:31:01;23.90;82.90
31819;DHT22;18384;48.860;9.188;2022-07-23T03:33:27;23.90;83.00
31819;DHT22;18384;48.860;9.188;2022-07-23T03:35:54;23.90;83.70
31819;DHT22;18384;48.860;9.188;2022-07-23T03:38:20;23.90;83.60
31819;DHT22;18384;48.860;9.188;2022-07-23T03:40:46;23.90;84.10
31819;DHT22;18384;48.860;9.188;2022-07-23T03:43:12;23.90;83.70
31819;DHT22;18384;48.860;9.188;2022-07-23T03:45:38;23.90;84.10
31819;DHT22;18384;48.860;9.188;2022-07-23T03:48:04;23.80;84.30
31819;DHT22;18384;48.860;9.188;2022-07-23T03:50:30;23.80;84.60
31819;DHT22;18384;48.860;9.188;2022-07-23T03:52:56;23.70;85.00
31819;DHT22;18384;48.860;9.188;2022-07-23T03:55:22;23.60;84.90
31819;DHT22;18384;48.860;9.188;2022-07-23T03:57:48;23.70;86.10
31819;DHT22;18384;48.860;9.188;2022-07-23T04:00:14;23.70;86.10
31819;DHT22;18384;48.860;9.188;2022-07-23T04:02:40;23.70;85.70
31819;DHT22;18384;48.860;9.188;2022-07-23T04:05:07;23.70;86.10
31819;DHT22;18384;48.860;9.188;2022-07-23T04:07:33;23.70;85.80
31819;DHT22;18384;48.860;9.188;2022-07-23T04:09:59;23.70;85.90
31819;DHT22;18384;48.860;9.188;2022-07-23T04:12:25;23.70;86.20
31819;DHT22;18384;48.860;9.188;2022-07-23T04:14:51;23.70;86.00
31819;DHT22;18384;48.860;9.188;2022-07-23T04:17:17;23.70;86.60
31819;DHT22;18384;48.860;9.188;2022-07-23T04:19:43;23.80;86.50
31819;DHT22;18384;48.860;9.188;2022-07-23T04:22:10;23.80;87.40
31819;DHT22;18384;48.860;9.188;2022-07-23T04:24:38;23.70;87.20
31819;DHT22;18384;48.860;9.188;2022-07-23T04:27:04;23.80;87.00
31819;DHT22;18384;48.860;9.188;2022-07-23T04:29:31;23.80;86.80
31819;DHT22;18384;48.860;9.188;2022-07-23T04:31:57;23.80;87.50
31819;DHT22;18384;48.860;9.188;2022-07-23T04:34:23;23.80;87.10
31819;DHT22;18384;48.860;9.188;2022-07-23T04:36:51;23.90;87.50
31819;DHT22;18384;48.860;9.188;2022-07-23T04:39:17;23.90;86.70
31819;DHT22;18384;48.860;9.188;2022-07-23T04:41:43;23.90;85.40
31819;DHT22;18384;48.860;9.188;2022-07-23T04:44:09;24.00;86.20
31819;DHT22;18384;48.860;9.188;2022-07-23T04:46:35;23.90;85.30
31819;DHT22;18384;48.860;9.188;2022-07-23T04:49:02;24.00;85.80
31819;DHT22;18384;48.860;9.188;2022-07-23T04:51:28;24.10;85.40
31819;DHT22;18384;48.860;9.188;2022-07-23T04:53:54;24.10;85.20
31819;DHT22;18384;48.860;9.188;2022-07-23T04:56:21;24.20;85.50
31819;DHT22;18384;48.860;9.188;2022-07-23T04:58:47;24.30;84.60
31819;DHT22;18384;48.860;9.188;2022-07-23T05:01:13;24.30;85.30
31819;DHT22;18384;48.860;9.188;2022-07-23T05:03:39;24.30;85.60
31819;DHT22;18384;48.860;9.188;2022-07-23T05:06:05;24.40;85.80
31819;DHT22;18384;48.860;9.188;2022-07-23T05:08:31;24.40;86.10
31819;DHT22;18384;48.860;9.188;2022-07-23T05:10:57;24.40;86.80
31819;DHT22;18384;48.860;9.188;2022-07-23T05:13:23;24.40;85.10
31819;DHT22;18384;48.860;9.188;2022-07-23T05:15:49;24.40;85.50
31819;DHT22;18384;48.860;9.188;2022-07-23T05:18:15;24.50;86.70
31819;DHT22;18384;48.860;9.188;2022-07-23T05:20:42;24.60;86.60
31819;DHT22;18384;48.860;9.188;2022-07-23T05:23:08;24.70;86.40
31819;DHT22;18384;48.860;9.188;2022-07-23T05:25:34;24.80;86.10
31819;DHT22;18384;48.860;9.188;2022-07-23T05:28:00;25.00;85.00
31819;DHT22;18384;48.860;9.188;2022-07-23T05:30:26;25.00;83.70
31819;DHT22;18384;48.860;9.188;2022-07-23T05:32:52;25.10;82.40
31819;DHT22;18384;48.860;9.188;2022-07-23T05:35:18;25.00;82.70
31819;DHT22;18384;48.860;9.188;2022-07-23T05:37:44;24.90;83.30
31819;DHT22;18384;48.860;9.188;2022-07-23T05:40:11;24.90;82.20
31819;DHT22;18384;48.860;9.188;2022-07-23T05:42:39;24.80;82.40
31819;DHT22;18384;48.860;9.188;2022-07-23T05:45:06;24.80;82.30
31819;DHT22;18384;48.860;9.188;2022-07-23T05:47:44;24.90;83.70
31819;DHT22;18384;48.860;9.188;2022-07-23T05:50:16;25.00;83.60
31819;DHT22;18384;48.860;9.188;2022-07-23T05:52:43;25.20;82.10
31819;DHT22;18384;48.860;9.188;2022-07-23T05:55:10;25.20;82.30
31819;DHT22;18384;48.860;9.188;2022-07-23T05:57:38;25.20;81.00
31819;DHT22;18384;48.860;9.188;2022-07-23T06:00:06;25.20;81.00
31819;DHT22;18384;48.860;9.188;2022-07-23T06:02:33;25.10;81.20
31819;DHT22;18384;48.860;9.188;2022-07-23T06:04:59;25.00;81.40
31819;DHT22;18384;48.860;9.188;2022-07-23T06:07:25;24.90;82.50
31819;DHT22;18384;48.860;9.188;2022-07-23T06:09:51;24.80;82.20
31819;DHT22;18384;48.860;9.188;2022-07-23T06:12:17;24.70;82.10
31819;DHT22;18384;48.860;9.188;2022-07-23T06:14:44;24.50;82.30
31819;DHT22;18384;48.860;9.188;2022-07-23T06:17:09;24.50;81.80
31819;DHT22;18384;48.860;9.188;2022-07-23T06:19:36;24.50;80.70
31819;DHT22;18384;48.860;9.188;2022-07-23T06:22:02;24.40;80.80
31819;DHT22;18384;48.860;9.188;2022-07-23T06:24:28;24.40;80.60
31819;DHT22;18384;48.860;9.188;2022-07-23T06:26:54;24.40;80.20
31819;DHT22;18384;48.860;9.188;2022-07-23T06:29:20;24.40;80.50
31819;DHT22;18384;48.860;9.188;2022-07-23T06:31:46;24.40;80.50
31819;DHT22;18384;48.860;9.188;2022-07-23T06:34:12;24.50;79.90
31819;DHT22;18384;48.860;9.188;2022-07-23T06:36:38;24.70;80.00
31819;DHT22;18384;48.860;9.188;2022-07-23T06:39:05;24.90;79.40
31819;DHT22;18384;48.860;9.188;2022-07-23T06:41:31;25.10;79.10
31819;DHT22;18384;48.860;9.188;2022-07-23T06:43:57;25.20;78.50
31819;DHT22;18384;48.860;9.188;2022-07-23T06:46:23;25.20;77.60
31819;DHT22;18384;48.860;9.188;2022-07-23T06:48:51;25.20;78.00
31819;DHT22;18384;48.860;9.188;2022-07-23T06:51:17;25.10;78.80
31819;DHT22;18384;48.860;9.188;2022-07-23T06:53:43;25.00;78.90
31819;DHT22;18384;48.860;9.188;2022-07-23T06:56:09;24.90;78.80
31819;DHT22;18384;48.860;9.188;2022-07-23T06:58:35;24.80;79.20
31819;DHT22;18384;48.860;9.188;2022-07-23T07:01:01;24.60;79.90
31819;DHT22;18384;48.860;9.188;2022-07-23T07:03:27;24.50;80.50
31819;DHT22;18384;48.860;9.188;2022-07-23T07:05:53;24.40;81.10
31819;DHT22;18384;48.860;9.188;2022-07-23T07:08:19;24.20;81.90
31819;DHT22;18384;48.860;9.188;2022-07-23T07:10:45;24.10;83.10
31819;DHT22;18384;48.860;9.188;2022-07-23T07:13:12;23.80;84.00
31819;DHT22;18384;48.860;9.188;2022-07-23T07:15:38;23.60;85.10
31819;DHT22;18384;48.860;9.188;2022-07-23T07:18:04;23.60;85.90
31819;DHT22;18384;48.860;9.188;2022-07-23T07:20:30;23.50;86.80
31819;DHT22;18384;48.860;9.188;2022-07-23T07:22:56;23.50;87.60
31819;DHT22;18384;48.860;9.188;2022-07-23T07:25:22;23.50;88.40
31819;DHT22;18384;48.860;9.188;2022-07-23T07:27:48;23.50;88.00
31819;DHT22;18384;48.860;9.188;2022-07-23T07:30:14;23.50;88.00
31819;DHT22;18384;48.860;9.188;2022-07-23T07:32:40;23.50;88.80
31819;DHT22;18384;48.860;9.188;2022-07-23T07:35:07;23.50;89.30
31819;DHT22;18384;48.860;9.188;2022-07-23T07:37:33;23.50;90.30
31819;DHT22;18384;48.860;9.188;2022-07-23T07:39:59;23.60;90.90
31819;DHT22;18384;48.860;9.188;2022-07-23T07:42:26;23.60;91.00
31819;DHT22;18384;48.860;9.188;2022-07-23T07:44:52;23.60;91.00
31819;DHT22;18384;48.860;9.188;2022-07-23T07:47:18;23.70;90.70
31819;DHT22;18384;48.860;9.188;2022-07-23T07:49:44;23.70;90.70
31819;DHT22;18384;48.860;9.188;2022-07-23T07:52:10;23.90;90.70
31819;DHT22;18384;48.860;9.188;2022-07-23T07:54:36;24.10;90.70
31819;DHT22;18384;48.860;9.188;2022-07-23T07:57:02;24.30;89.80
31819;DHT22;18384;48.860;9.188;2022-07-23T07:59:28;24.20;89.30
31819;DHT22;18384;48.860;9.188;2022-07-23T08:01:55;24.10;90.40
31819;DHT22;18384;48.860;9.188;2022-07-23T08:04:21;24.10;89.90
31819;DHT22;18384;48.860;9.188;2022-07-23T08:06:47;24.00;90.70
31819;DHT22;18384;48.860;9.188;2022-07-23T08:09:13;23.90;90.70
31819;DHT22;18384;48.860;9.188;2022-07-23T08:11:39;23.90;90.70
31819;DHT22;18384;48.860;9.188;2022-07-23T08:14:05;23.90;90.60
31819;DHT22;18384;48.860;9.188;2022-07-23T08:16:31;23.80;90.20
31819;DHT22;18384;48.860;9.188;2022-07-23T08:18:58;23.80;90.70
31819;DHT22;18384;48.860;9.188;2022-07-23T08:21:24;23.70;90.80
31819;DHT22;18384;48.860;9.188;2022-07-23T08:23:50;23.80;91.00
31819;DHT22;18384;48.860;9.188;2022-07-23T08:26:16;23.80;91.10
31819;DHT22;18384;48.860;9.188;2022-07-23T08:28:42;24.00;90.60
31819;DHT22;18384;48.860;9.188;2022-07-23T08:31:08;24.00;90.30
31819;DHT22;18384;48.860;9.188;2022-07-23T08:33:36;24.00;90.40
31819;DHT22;18384;48.860;9.188;2022-07-23T08:36:03;24.20;90.30
31819;DHT22;18384;48.860;9.188;2022-07-23T08:38:30;24.40;90.20
31819;DHT22;18384;48.860;9.188;2022-07-23T08:40:57;24.70;89.40
31819;DHT22;18384;48.860;9.188;2022-07-23T08:43:24;24.90;88.90
31819;DHT22;18384;48.860;9.188;2022-07-23T08:45:54;25.10;88.90
31819;DHT22;18384;48.860;9.188;2022-07-23T08:48:26;25.30;87.10
31819;DHT22;18384;48.860;9.188;2022-07-23T08:50:56;25.50;86.10
31819;DHT22;18384;48.860;9.188;2022-07-23T08:53:25;25.80;86.30
31819;DHT22;18384;48.860;9.188;2022-07-23T08:55:55;26.10;84.40
31819;DHT22;18384;48.860;9.188;2022-07-23T08:58:22;26.30;82.30
31819;DHT22;18384;48.860;9.188;2022-07-23T09:00:49;26.40;79.90
31819;DHT22;18384;48.860;9.188;2022-07-23T09:03:21;26.50;78.20
31819;DHT22;18384;48.860;9.188;2022-07-23T09:05:55;26.50;78.60
31819;DHT22;18384;48.860;9.188;2022-07-23T09:08:25;26.50;79.60
31819;DHT22;18384;48.860;9.188;2022-07-23T09:11:00;26.50;78.50
31819;DHT22;18384;48.860;9.188;2022-07-23T09:16:40;26.60;77.20
31819;DHT22;18384;48.860;9.188;2022-07-23T09:19:07;26.60;77.50
31819;DHT22;18384;48.860;9.188;2022-07-23T09:21:35;26.60;79.20
31819;DHT22;18384;48.860;9.188;2022-07-23T09:24:07;26.60;78.90
31819;DHT22;18384;48.860;9.188;2022-07-23T09:26:46;26.60;80.40
31819;DHT22;18384;48.860;9.188;2022-07-23T09:29:26;26.60;81.30
31819;DHT22;18384;48.860;9.188;2022-07-23T09:32:00;26.70;79.20
31819;DHT22;18384;48.860;9.188;2022-07-23T09:34:33;26.70;80.10
31819;DHT22;18384;48.860;9.188;2022-07-23T09:37:17;26.90;78.80
31819;DHT22;18384;48.860;9.188;2022-07-23T09:39:45;27.10;78.10
31819;DHT22;18384;48.860;9.188;2022-07-23T09:42:19;27.20;78.60
31819;DHT22;18384;48.860;9.188;2022-07-23T09:44:48;27.20;76.40
31819;DHT22;18384;48.860;9.188;2022-07-23T09:47:16;27.10;77.30
31819;DHT22;18384;48.860;9.188;2022-07-23T09:50:05;27.20;77.50
31819;DHT22;18384;48.860;9.188;2022-07-23T09:52:44;27.20;76.80
31819;DHT22;18384;48.860;9.188;2022-07-23T09:55:16;27.20;76.20
31819;DHT22;18384;48.860;9.188;2022-07-23T09:57:46;27.20;76.00
31819;DHT22;18384;48.860;9.188;2022-07-23T10:00:17;27.10;77.10
31819;DHT22;18384;48.860;9.188;2022-07-23T10:02:46;27.00;74.90
31819;DHT22;18384;48.860;9.188;2022-07-23T10:05:13;27.10;74.40
31819;DHT22;18384;48.860;9.188;2022-07-23T10:07:40;27.10;74.00
31819;DHT22;18384;48.860;9.188;2022-07-23T10:10:08;27.10;74.80
31819;DHT22;18384;48.860;9.188;2022-07-23T10:12:36;27.10;74.40
31819;DHT22;18384;48.860;9.188;2022-07-23T10:15:15;27.10;73.60
31819;DHT22;18384;48.860;9.188;2022-07-23T10:17:41;27.20;73.30
31819;DHT22;18384;48.860;9.188;2022-07-23T10:20:07;27.80;74.50
31819;DHT22;18384;48.860;9.188;2022-07-23T10:22:37;27.20;74.20
31819;DHT22;18384;48.860;9.188;2022-07-23T10:25:32;27.20;74.90
31819;DHT22;18384;48.860;9.188;2022-07-23T10:30:07;27.20;75.30
31819;DHT22;18384;48.860;9.188;2022-07-23T10:42:33;27.30;76.10
31819;DHT22;18384;48.860;9.188;2022-07-23T10:44:59;27.30;74.80
31819;DHT22;18384;48.860;9.188;2022-07-23T10:47:29;27.30;74.40
31819;DHT22;18384;48.860;9.188;2022-07-23T10:50:21;27.30;73.80
31819;DHT22;18384;48.860;9.188;2022-07-23T10:53:13;27.30;73.40
31819;DHT22;18384;48.860;9.188;2022-07-23T10:55:49;27.30;73.80
31819;DHT22;18384;48.860;9.188;2022-07-23T10:58:18;27.40;74.20
31819;DHT22;18384;48.860;9.188;2022-07-23T11:00:49;27.60;75.40
31819;DHT22;18384;48.860;9.188;2022-07-23T11:03:33;27.70;74.60
31819;DHT22;18384;48.860;9.188;2022-07-23T11:06:05;27.70;75.10
31819;DHT22;18384;48.860;9.188;2022-07-23T11:08:31;27.70;73.90
31819;DHT22;18384;48.860;9.188;2022-07-23T11:11:16;27.80;74.30
31819;DHT22;18384;48.860;9.188;2022-07-23T11:13:46;27.90;71.00
31819;DHT22;18384;48.860;9.188;2022-07-23T11:16:18;27.80;71.30
31819;DHT22;18384;48.860;9.188;2022-07-23T11:19:04;27.70;69.20
31819;DHT22;18384;48.860;9.188;2022-07-23T11:21:40;27.80;72.00
31819;DHT22;18384;48.860;9.188;2022-07-23T11:24:15;27.90;71.40
31819;DHT22;18384;48.860;9.188;2022-07-23T11:26:47;27.90;72.20
31819;DHT22;18384;48.860;9.188;2022-07-23T11:29:53;27.90;68.90
31819;DHT22;18384;48.860;9.188;2022-07-23T11:32:24;27.90;67.70
31819;DHT22;18384;48.860;9.188;2022-07-23T11:34:53;27.90;67.60
31819;DHT22;18384;48.860;9.188;2022-07-23T11:37:39;27.80;69.00
31819;DHT22;18384;48.860;9.188;2022-07-23T11:40:14;27.90;70.50
31819;DHT22;18384;48.860;9.188;2022-07-23T11:44:35;27.90;70.20
31819;DHT22;18384;48.860;9.188;2022-07-23T11:47:05;27.90;69.00
31819;DHT22;18384;48.860;9.188;2022-07-23T11:49:33;27.90;70.00
31819;DHT22;18384;48.860;9.188;2022-07-23T11:52:13;27.90;70.50
31819;DHT22;18384;48.860;9.188;2022-07-23T11:55:40;27.90;70.20
31819;DHT22;18384;48.860;9.188;2022-07-23T11:58:06;27.90;71.60
31819;DHT22;18384;48.860;9.188;2022-07-23T12:00:32;27.90;71.20
31819;DHT22;18384;48.860;9.188;2022-07-23T12:03:01;27.90;71.10
31819;DHT22;18384;48.860;9.188;2022-07-23T12:05:31;27.90;72.30
31819;DHT22;18384;48.860;9.188;2022-07-23T12:08:00;28.00;72.00
31819;DHT22;18384;48.860;9.188;2022-07-23T12:10:38;28.10;71.90
31819;DHT22;18384;48.860;9.188;2022-07-23T12:13:16;28.20;70.80
31819;DHT22;18384;48.860;9.188;2022-07-23T12:15:45;28.20;69.30
31819;DHT22;18384;48.860;9.188;2022-07-23T12:18:16;28.20;70.00
31819;DHT22;18384;48.860;9.188;2022-07-23T12:20:49;28.20;71.90
31819;DHT22;18384;48.860;9.188;2022-07-23T12:23:25;28.30;70.40
31819;DHT22;18384;48.860;9.188;2022-07-23T12:25:53;28.30;69.90
31819;DHT22;18384;48.860;9.188;2022-07-23T12:28:21;28.50;69.60
31819;DHT22;18384;48.860;9.188;2022-07-23T12:30:55;28.70;71.10
31819;DHT22;18384;48.860;9.188;2022-07-23T12:33:30;28.80;68.90
31819;DHT22;18384;48.860;9.188;2022-07-23T12:36:02;28.80;68.50
31819;DHT22;18384;48.860;9.188;2022-07-23T12:38:37;28.70;68.50
31819;DHT22;18384;48.860;9.188;2022-07-23T12:41:05;28.70;69.90
31819;DHT22;18384;48.860;9.188;2022-07-23T12:43:42;28.60;68.00
31819;DHT22;18384;48.860;9.188;2022-07-23T12:46:20;28.60;68.60
31819;DHT22;18384;48.860;9.188;2022-07-23T12:48:56;28.60;69.70
31819;DHT22;18384;48.860;9.188;2022-07-23T12:51:27;28.60;69.60
31819;DHT22;18384;48.860;9.188;2022-07-23T12:54:16;28.60;68.20
31819;DHT22;18384;48.860;9.188;2022-07-23T12:56:44;28.60;69.10
31819;DHT22;18384;48.860;9.188;2022-07-23T12:59:13;28.70;70.00
31819;DHT22;18384;48.860;9.188;2022-07-23T13:01:53;28.70;70.30
31819;DHT22;18384;48.860;9.188;2022-07-23T13:04:22;28.70;70.90
31819;DHT22;18384;48.860;9.188;2022-07-23T13:06:51;28.60;70.70
31819;DHT22;18384;48.860;9.188;2022-07-23T13:09:21;28.60;71.00
31819;DHT22;18384;48.860;9.188;2022-07-23T13:11:50;28.50;72.00
31819;DHT22;18384;48.860;9.188;2022-07-23T13:14:19;28.60;69.70
31819;DHT22;18384;48.860;9.188;2022-07-23T13:16:47;28.60;68.80
31819;DHT22;18384;48.860;9.188;2022-07-23T13:19:15;28.50;68.20
31819;DHT22;18384;48.860;9.188;2022-07-23T13:21:41;28.50;68.80
31819;DHT22;18384;48.860;9.188;2022-07-23T13:24:09;28.50;68.50
31819;DHT22;18384;48.860;9.188;2022-07-23T13:26:36;28.40;67.90
31819;DHT22;18384;48.860;9.188;2022-07-23T13:29:03;28.50;70.40
31819;DHT22;18384;48.860;9.188;2022-07-23T13:31:30;28.50;69.50
31819;DHT22;18384;48.860;9.188;2022-07-23T13:33:56;28.50;71.30
31819;DHT22;18384;48.860;9.188;2022-07-23T13:36:22;28.50;70.50
31819;DHT22;18384;48.860;9.188;2022-07-23T13:38:48;28.50;70.20
31819;DHT22;18384;48.860;9.188;2022-07-23T13:41:17;28.40;70.20
31819;DHT22;18384;48.860;9.188;2022-07-23T13:43:43;28.40;70.60
31819;DHT22;18384;48.860;9.188;2022-07-23T13:46:10;28.30;70.00
31819;DHT22;18384;48.860;9.188;2022-07-23T13:48:36;28.20;70.00
31819;DHT22;18384;48.860;9.188;2022-07-23T13:51:02;28.30;69.20
31819;DHT22;18384;48.860;9.188;2022-07-23T13:53:28;28.30;69.30
31819;DHT22;18384;48.860;9.188;2022-07-23T13:55:55;28.30;68.50
31819;DHT22;18384;48.860;9.188;2022-07-23T13:58:21;28.30;69.10
31819;DHT22;18384;48.860;9.188;2022-07-23T14:00:51;28.30;69.10
31819;DHT22;18384;48.860;9.188;2022-07-23T14:03:19;28.30;69.30
31819;DHT22;18384;48.860;9.188;2022-07-23T14:05:48;28.30;69.30
31819;DHT22;18384;48.860;9.188;2022-07-23T14:08:14;28.30;67.80
31819;DHT22;18384;48.860;9.188;2022-07-23T14:10:41;28.30;67.40
31819;DHT22;18384;48.860;9.188;2022-07-23T14:13:07;28.30;66.80
31819;DHT22;18384;48.860;9.188;2022-07-23T14:15:33;28.40;67.10
31819;DHT22;18384;48.860;9.188;2022-07-23T14:17:59;28.40;67.60
31819;DHT22;18384;48.860;9.188;2022-07-23T14:20:25;28.50;67.80
31819;DHT22;18384;48.860;9.188;2022-07-23T14:22:52;28.50;67.70
31819;DHT22;18384;48.860;9.188;2022-07-23T14:25:21;28.60;67.50
31819;DHT22;18384;48.860;9.188;2022-07-23T14:27:47;28.70;67.10
31819;DHT22;18384;48.860;9.188;2022-07-23T14:30:13;28.70;65.90
31819;DHT22;18384;48.860;9.188;2022-07-23T14:32:40;28.60;66.20
31819;DHT22;18384;48.860;9.188;2022-07-23T14:35:06;28.60;66.30
31819;DHT22;18384;48.860;9.188;2022-07-23T14:37:33;28.60;66.80
31819;DHT22;18384;48.860;9.188;2022-07-23T14:39:59;28.60;66.60
31819;DHT22;18384;48.860;9.188;2022-07-23T14:42:25;28.60;67.60
31819;DHT22;18384;48.860;9.188;2022-07-23T14:44:51;28.60;66.20
31819;DHT22;18384;48.860;9.188;2022-07-23T14:47:18;28.60;66.10
31819;DHT22;18384;48.860;9.188;2022-07-23T14:49:44;28.60;66.00
31819;DHT22;18384;48.860;9.188;2022-07-23T14:52:10;28.70;66.20
31819;DHT22;18384;48.860;9.188;2022-07-23T14:54:36;28.70;65.80
31819;DHT22;18384;48.860;9.188;2022-07-23T14:57:03;28.70;65.40
31819;DHT22;18384;48.860;9.188;2022-07-23T14:59:29;28.80;64.90
31819;DHT22;18384;48.860;9.188;2022-07-23T15:01:57;28.80;65.70
31819;DHT22;18384;48.860;9.188;2022-07-23T15:04:23;29.00;64.50
31819;DHT22;18384;48.860;9.188;2022-07-23T15:06:50;29.00;63.80
31819;DHT22;18384;48.860;9.188;2022-07-23T15:09:16;29.10;64.30
31819;DHT22;18384;48.860;9.188;2022-07-23T15:11:42;29.10;65.00
31819;DHT22;18384;48.860;9.188;2022-07-23T15:14:09;29.20;65.30
31819;DHT22;18384;48.860;9.188;2022-07-23T15:16:35;29.30;65.20
31819;DHT22;18384;48.860;9.188;2022-07-23T15:19:03;29.40;65.50
31819;DHT22;18384;48.860;9.188;2022-07-23T15:21:29;29.40;65.70
31819;DHT22;18384;48.860;9.188;2022-07-23T15:23:57;29.50;64.70
31819;DHT22;18384;48.860;9.188;2022-07-23T15:26:27;29.40;63.50
31819;DHT22;18384;48.860;9.188;2022-07-23T15:28:55;29.30;63.40
31819;DHT22;18384;48.860;9.188;2022-07-23T15:31:21;29.30;63.50
31819;DHT22;18384;48.860;9.188;2022-07-23T15:33:48;29.30;62.60
31819;DHT22;18384;48.860;9.188;2022-07-23T15:36:16;29.30;63.40
31819;DHT22;18384;48.860;9.188;2022-07-23T15:38:43;29.40;63.30
31819;DHT22;18384;48.860;9.188;2022-07-23T15:41:09;29.30;63.40
31819;DHT22;18384;48.860;9.188;2022-07-23T15:43:35;29.40;62.80
31819;DHT22;18384;48.860;9.188;2022-07-23T15:46:01;29.50;62.90
31819;DHT22;18384;48.860;9.188;2022-07-23T15:48:29;29.50;63.30
31819;DHT22;18384;48.860;9.188;2022-07-23T15:50:56;29.50;64.20
31819;DHT22;18384;48.860;9.188;2022-07-23T15:53:22;29.40;63.90